sensor_id;sensor_type;location;lat;lon;timestamp;P1;durP1;ratioP1;P2;durP2;ratioP2
1959;SDS011;980;43.794;11.212;2024-03-23T10:46:11;21.25;;;21.25;;
1959;SDS011;980;43.794;11.212;2024-03-23T11:32:59;30.75;;;27.75;;
1959;SDS011;980;43.794;11.212;2024-03-23T11:35:26;39.25;;;31.75;;
1959;SDS011;980;43.794;11.212;2024-03-23T11:40:36;47.50;;;40.75;;
1959;SDS011;980;43.794;11.212;2024-03-23T11:43:02;60.50;;;49.00;;
1959;SDS011;980;43.794;11.212;2024-03-23T11:45:28;143.50;;;132.25;;
1959;SDS011;980;43.794;11.212;2024-03-23T11:48:10;67.00;;;54.00;;
1959;SDS011;980;43.794;11.212;2024-03-23T11:50:36;76.00;;;62.67;;
1959;SDS011;980;43.794;11.212;2024-03-23T11:53:08;30.50;;;30.25;;
1959;SDS011;980;43.794;11.212;2024-03-23T11:55:53;39.00;;;34.00;;
1959;SDS011;980;43.794;11.212;2024-03-23T11:58:19;32.50;;;28.75;;
1959;SDS011;980;43.794;11.212;2024-03-23T12:03:16;23.25;;;19.25;;
1959;SDS011;980;43.794;11.212;2024-03-23T12:05:41;24.00;;;23.50;;
1959;SDS011;980;43.794;11.212;2024-03-23T12:10:46;26.00;;;26.00;;
1959;SDS011;980;43.794;11.212;2024-03-23T12:13:14;17.50;;;17.50;;
1959;SDS011;980;43.794;11.212;2024-03-23T12:15:40;23.25;;;20.25;;
1959;SDS011;980;43.794;11.212;2024-03-23T12:18:08;21.50;;;19.25;;
1959;SDS011;980;43.794;11.212;2024-03-23T12:20:33;23.50;;;21.50;;
1959;SDS011;980;43.794;11.212;2024-03-23T12:23:05;23.25;;;20.75;;
1959;SDS011;980;43.794;11.212;2024-03-23T12:25:31;27.50;;;25.00;;
1959;SDS011;980;43.794;11.212;2024-03-23T12:27:58;22.50;;;22.50;;
1959;SDS011;980;43.794;11.212;2024-03-23T12:30:23;25.75;;;25.50;;
1959;SDS011;980;43.794;11.212;2024-03-23T12:32:49;30.50;;;27.00;;
1959;SDS011;980;43.794;11.212;2024-03-23T12:35:14;35.75;;;32.50;;
1959;SDS011;980;43.794;11.212;2024-03-23T12:37:39;21.00;;;20.00;;
1959;SDS011;980;43.794;11.212;2024-03-23T12:40:05;26.25;;;22.75;;
1959;SDS011;980;43.794;11.212;2024-03-23T12:42:31;25.50;;;22.75;;
1959;SDS011;980;43.794;11.212;2024-03-23T12:44:56;26.25;;;22.75;;
1959;SDS011;980;43.794;11.212;2024-03-23T12:47:21;29.25;;;27.25;;
1959;SDS011;980;43.794;11.212;2024-03-23T12:49:46;21.25;;;20.25;;
1959;SDS011;980;43.794;11.212;2024-03-23T12:52:14;21.25;;;21.25;;
1959;SDS011;980;43.794;11.212;2024-03-23T12:54:39;27.00;;;25.00;;
1959;SDS011;980;43.794;11.212;2024-03-23T12:57:04;23.25;;;22.00;;
1959;SDS011;980;43.794;11.212;2024-03-23T12:59:29;27.50;;;24.25;;
1959;SDS011;980;43.794;11.212;2024-03-23T13:01:55;23.75;;;20.25;;
1959;SDS011;980;43.794;11.212;2024-03-23T13:04:20;20.25;;;20.25;;
1959;SDS011;980;43.794;11.212;2024-03-23T13:06:46;21.75;;;18.25;;
1959;SDS011;980;43.794;11.212;2024-03-23T13:09:11;23.50;;;23.00;;
1959;SDS011;980;43.794;11.212;2024-03-23T13:11:36;16.50;;;16.50;;
1959;SDS011;980;43.794;11.212;2024-03-23T13:14:01;17.50;;;17.25;;
1959;SDS011;980;43.794;11.212;2024-03-23T13:16:29;21.00;;;20.75;;
1959;SDS011;980;43.794;11.212;2024-03-23T13:18:54;18.75;;;18.75;;
1959;SDS011;980;43.794;11.212;2024-03-23T13:21:19;17.75;;;14.75;;
1959;SDS011;980;43.794;11.212;2024-03-23T13:23:47;15.50;;;15.00;;
1959;SDS011;980;43.794;11.212;2024-03-23T13:26:15;15.25;;;15.25;;
1959;SDS011;980;43.794;11.212;2024-03-23T13:28:40;19.00;;;16.00;;
1959;SDS011;980;43.794;11.212;2024-03-23T13:31:06;16.25;;;15.00;;
1959;SDS011;980;43.794;11.212;2024-03-23T13:33:31;14.00;;;14.00;;
1959;SDS011;980;43.794;11.212;2024-03-23T13:35:59;14.25;;;14.25;;
1959;SDS011;980;43.794;11.212;2024-03-23T13:38:25;16.50;;;14.00;;
1959;SDS011;980;43.794;11.212;2024-03-23T13:40:54;18.25;;;16.25;;
1959;SDS011;980;43.794;11.212;2024-03-23T13:43:20;14.00;;;14.00;;
1959;SDS011;980;43.794;11.212;2024-03-23T13:45:46;18.25;;;16.25;;
1959;SDS011;980;43.794;11.212;2024-03-23T13:48:12;14.00;;;14.00;;
1959;SDS011;980;43.794;11.212;2024-03-23T13:50:37;16.00;;;14.50;;
1959;SDS011;980;43.794;11.212;2024-03-23T13:53:02;14.00;;;14.00;;
1959;SDS011;980;43.794;11.212;2024-03-23T13:55:28;17.50;;;14.50;;
1959;SDS011;980;43.794;11.212;2024-03-23T13:57:53;13.25;;;12.00;;
1959;SDS011;980;43.794;11.212;2024-03-23T14:00:19;11.00;;;10.75;;
1959;SDS011;980;43.794;11.212;2024-03-23T14:02:45;9.50;;;9.50;;
1959;SDS011;980;43.794;11.212;2024-03-23T14:05:10;13.00;;;10.00;;
1959;SDS011;980;43.794;11.212;2024-03-23T14:07:36;13.75;;;10.00;;
1959;SDS011;980;43.794;11.212;2024-03-23T14:10:04;9.50;;;9.00;;
1959;SDS011;980;43.794;11.212;2024-03-23T14:12:31;10.00;;;10.00;;
1959;SDS011;980;43.794;11.212;2024-03-23T14:14:56;9.25;;;9.25;;
1959;SDS011;980;43.794;11.212;2024-03-23T14:17:21;8.50;;;8.50;;
1959;SDS011;980;43.794;11.212;2024-03-23T14:19:47;10.00;;;7.75;;
1959;SDS011;980;43.794;11.212;2024-03-23T14:22:12;13.25;;;8.50;;
1959;SDS011;980;43.794;11.212;2024-03-23T14:24:37;10.00;;;10.00;;
1959;SDS011;980;43.794;11.212;2024-03-23T14:27:04;13.00;;;11.00;;
1959;SDS011;980;43.794;11.212;2024-03-23T14:29:30;10.75;;;8.75;;
1959;SDS011;980;43.794;11.212;2024-03-23T14:31:55;11.75;;;10.00;;
1959;SDS011;980;43.794;11.212;2024-03-23T14:34:21;7.00;;;7.00;;
1959;SDS011;980;43.794;11.212;2024-03-23T14:36:46;9.75;;;9.50;;
1959;SDS011;980;43.794;11.212;2024-03-23T14:39:11;12.75;;;12.25;;
1959;SDS011;980;43.794;11.212;2024-03-23T14:41:38;7.50;;;7.50;;
1959;SDS011;980;43.794;11.212;2024-03-23T14:44:03;15.25;;;11.25;;
1959;SDS011;980;43.794;11.212;2024-03-23T14:46:28;10.50;;;9.00;;
1959;SDS011;980;43.794;11.212;2024-03-23T14:48:53;16.25;;;12.00;;
1959;SDS011;980;43.794;11.212;2024-03-23T14:51:19;11.50;;;10.00;;
1959;SDS011;980;43.794;11.212;2024-03-23T14:53:47;15.75;;;12.25;;
1959;SDS011;980;43.794;11.212;2024-03-23T14:56:13;13.00;;;11.75;;
1959;SDS011;980;43.794;11.212;2024-03-23T14:58:40;16.00;;;13.00;;
1959;SDS011;980;43.794;11.212;2024-03-23T15:01:06;13.25;;;11.00;;
1959;SDS011;980;43.794;11.212;2024-03-23T15:03:35;17.50;;;12.00;;
1959;SDS011;980;43.794;11.212;2024-03-23T15:06:01;12.00;;;11.00;;
1959;SDS011;980;43.794;11.212;2024-03-23T15:08:27;13.50;;;11.25;;
1959;SDS011;980;43.794;11.212;2024-03-23T15:10:58;21.50;;;14.50;;
1959;SDS011;980;43.794;11.212;2024-03-23T15:13:23;11.00;;;10.00;;
1959;SDS011;980;43.794;11.212;2024-03-23T15:15:49;12.75;;;10.00;;
1959;SDS011;980;43.794;11.212;2024-03-23T15:18:14;6.50;;;3.00;;
1959;SDS011;980;43.794;11.212;2024-03-23T15:20:53;8.50;;;7.25;;
1959;SDS011;980;43.794;11.212;2024-03-23T15:23:18;16.00;;;14.00;;
1959;SDS011;980;43.794;11.212;2024-03-23T15:25:43;13.00;;;12.75;;
1959;SDS011;980;43.794;11.212;2024-03-23T15:28:08;10.25;;;8.50;;
1959;SDS011;980;43.794;11.212;2024-03-23T15:30:34;12.25;;;11.00;;
1959;SDS011;980;43.794;11.212;2024-03-23T15:33:00;11.25;;;8.00;;
1959;SDS011;980;43.794;11.212;2024-03-23T15:35:25;14.75;;;10.50;;
1959;SDS011;980;43.794;11.212;2024-03-23T15:37:50;14.75;;;13.00;;
1959;SDS011;980;43.794;11.212;2024-03-23T15:40:15;15.50;;;13.00;;
1959;SDS011;980;43.794;11.212;2024-03-23T15:42:41;13.50;;;10.75;;
1959;SDS011;980;43.794;11.212;2024-03-23T15:45:06;13.25;;;10.75;;
1959;SDS011;980;43.794;11.212;2024-03-23T15:47:32;12.50;;;11.50;;
1959;SDS011;980;43.794;11.212;2024-03-23T15:49:58;11.50;;;9.00;;
1959;SDS011;980;43.794;11.212;2024-03-23T15:52:23;14.00;;;10.00;;
1959;SDS011;980;43.794;11.212;2024-03-23T15:54:48;13.50;;;9.00;;
1959;SDS011;980;43.794;11.212;2024-03-23T15:57:13;10.50;;;7.75;;
1959;SDS011;980;43.794;11.212;2024-03-23T15:59:42;9.00;;;9.00;;
1959;SDS011;980;43.794;11.212;2024-03-23T16:02:08;10.50;;;9.50;;
1959;SDS011;980;43.794;11.212;2024-03-23T16:04:33;11.50;;;8.00;;
1959;SDS011;980;43.794;11.212;2024-03-23T16:06:58;11.25;;;8.50;;
1959;SDS011;980;43.794;11.212;2024-03-23T16:09:23;8.00;;;8.00;;
1959;SDS011;980;43.794;11.212;2024-03-23T16:11:49;12.25;;;12.25;;
1959;SDS011;980;43.794;11.212;2024-03-23T16:14:14;11.25;;;11.25;;
1959;SDS011;980;43.794;11.212;2024-03-23T16:16:39;15.50;;;13.00;;
1959;SDS011;980;43.794;11.212;2024-03-23T16:19:04;10.50;;;10.50;;
1959;SDS011;980;43.794;11.212;2024-03-23T16:21:30;13.00;;;12.75;;
1959;SDS011;980;43.794;11.212;2024-03-23T16:23:55;11.75;;;9.00;;
1959;SDS011;980;43.794;11.212;2024-03-23T16:26:22;13.75;;;12.00;;
1959;SDS011;980;43.794;11.212;2024-03-23T16:28:49;12.25;;;11.00;;
1959;SDS011;980;43.794;11.212;2024-03-23T16:31:14;12.25;;;12.25;;
1959;SDS011;980;43.794;11.212;2024-03-23T16:33:40;14.00;;;12.25;;
1959;SDS011;980;43.794;11.212;2024-03-23T16:36:06;12.00;;;11.25;;
1959;SDS011;980;43.794;11.212;2024-03-23T16:38:32;13.25;;;11.50;;
1959;SDS011;980;43.794;11.212;2024-03-23T16:41:00;14.00;;;11.75;;
1959;SDS011;980;43.794;11.212;2024-03-23T16:43:26;17.25;;;14.50;;
1959;SDS011;980;43.794;11.212;2024-03-23T16:45:52;17.75;;;14.00;;
1959;SDS011;980;43.794;11.212;2024-03-23T16:48:17;17.00;;;14.00;;
1959;SDS011;980;43.794;11.212;2024-03-23T16:50:43;16.00;;;14.00;;
1959;SDS011;980;43.794;11.212;2024-03-23T16:53:08;13.50;;;12.00;;
1959;SDS011;980;43.794;11.212;2024-03-23T16:55:34;10.50;;;10.50;;
1959;SDS011;980;43.794;11.212;2024-03-23T16:58:00;13.25;;;12.00;;
1959;SDS011;980;43.794;11.212;2024-03-23T17:00:25;12.50;;;12.50;;
1959;SDS011;980;43.794;11.212;2024-03-23T17:02:51;14.50;;;14.00;;
1959;SDS011;980;43.794;11.212;2024-03-23T17:05:16;20.50;;;13.00;;
1959;SDS011;980;43.794;11.212;2024-03-23T17:07:42;16.00;;;13.25;;
1959;SDS011;980;43.794;11.212;2024-03-23T17:10:09;18.00;;;15.50;;
1959;SDS011;980;43.794;11.212;2024-03-23T17:12:34;20.00;;;16.00;;
1959;SDS011;980;43.794;11.212;2024-03-23T17:15:03;17.75;;;15.75;;
1959;SDS011;980;43.794;11.212;2024-03-23T17:17:31;22.00;;;19.50;;
1959;SDS011;980;43.794;11.212;2024-03-23T17:20:02;20.00;;;17.00;;
1959;SDS011;980;43.794;11.212;2024-03-23T17:22:28;34.50;;;26.00;;
1959;SDS011;980;43.794;11.212;2024-03-23T17:24:53;27.25;;;22.75;;
1959;SDS011;980;43.794;11.212;2024-03-23T17:27:18;21.00;;;17.50;;
1959;SDS011;980;43.794;11.212;2024-03-23T17:29:44;27.25;;;25.75;;
1959;SDS011;980;43.794;11.212;2024-03-23T17:32:11;31.25;;;27.25;;
1959;SDS011;980;43.794;11.212;2024-03-23T17:34:36;24.75;;;21.75;;
1959;SDS011;980;43.794;11.212;2024-03-23T17:37:01;25.75;;;22.00;;
1959;SDS011;980;43.794;11.212;2024-03-23T17:39:26;26.75;;;21.75;;
1959;SDS011;980;43.794;11.212;2024-03-23T17:41:52;22.25;;;22.25;;
1959;SDS011;980;43.794;11.212;2024-03-23T17:44:17;21.50;;;21.00;;
1959;SDS011;980;43.794;11.212;2024-03-23T17:46:42;23.75;;;20.50;;
1959;SDS011;980;43.794;11.212;2024-03-23T17:49:07;26.50;;;23.75;;
1959;SDS011;980;43.794;11.212;2024-03-23T17:51:32;27.25;;;22.00;;
1959;SDS011;980;43.794;11.212;2024-03-23T17:53:58;18.00;;;16.75;;
1959;SDS011;980;43.794;11.212;2024-03-23T17:56:23;14.75;;;14.75;;
1959;SDS011;980;43.794;11.212;2024-03-23T17:58:48;24.25;;;21.00;;
1959;SDS011;980;43.794;11.212;2024-03-23T18:01:14;20.75;;;18.25;;
1959;SDS011;980;43.794;11.212;2024-03-23T18:03:41;25.00;;;21.25;;
1959;SDS011;980;43.794;11.212;2024-03-23T18:06:07;19.00;;;18.25;;
1959;SDS011;980;43.794;11.212;2024-03-23T18:08:32;24.00;;;22.50;;
1959;SDS011;980;43.794;11.212;2024-03-23T18:10:57;34.75;;;31.50;;
1959;SDS011;980;43.794;11.212;2024-03-23T18:13:22;38.00;;;31.50;;
1959;SDS011;980;43.794;11.212;2024-03-23T18:15:57;40.50;;;32.50;;
1959;SDS011;980;43.794;11.212;2024-03-23T18:18:22;34.75;;;33.25;;
1959;SDS011;980;43.794;11.212;2024-03-23T18:20:49;38.75;;;34.00;;
1959;SDS011;980;43.794;11.212;2024-03-23T18:23:14;35.50;;;32.25;;
1959;SDS011;980;43.794;11.212;2024-03-23T18:25:40;40.75;;;37.50;;
1959;SDS011;980;43.794;11.212;2024-03-23T18:28:05;45.00;;;37.75;;
1959;SDS011;980;43.794;11.212;2024-03-23T18:30:30;42.00;;;38.50;;
1959;SDS011;980;43.794;11.212;2024-03-23T18:32:55;41.75;;;38.00;;
1959;SDS011;980;43.794;11.212;2024-03-23T18:35:21;45.00;;;40.50;;
1959;SDS011;980;43.794;11.212;2024-03-23T18:37:46;52.75;;;43.50;;
1959;SDS011;980;43.794;11.212;2024-03-23T18:40:13;43.75;;;39.00;;
1959;SDS011;980;43.794;11.212;2024-03-23T18:42:38;36.00;;;31.00;;
1959;SDS011;980;43.794;11.212;2024-03-23T18:45:05;35.50;;;31.00;;
1959;SDS011;980;43.794;11.212;2024-03-23T18:47:30;30.25;;;28.00;;
1959;SDS011;980;43.794;11.212;2024-03-23T18:49:56;33.25;;;28.50;;
1959;SDS011;980;43.794;11.212;2024-03-23T18:52:21;30.00;;;28.75;;
1959;SDS011;980;43.794;11.212;2024-03-23T18:54:47;25.50;;;24.25;;
1959;SDS011;980;43.794;11.212;2024-03-23T18:57:12;30.50;;;24.75;;
1959;SDS011;980;43.794;11.212;2024-03-23T18:59:38;25.00;;;21.25;;
1959;SDS011;980;43.794;11.212;2024-03-23T19:02:03;22.75;;;19.00;;
1959;SDS011;980;43.794;11.212;2024-03-23T19:04:29;25.50;;;20.25;;
1959;SDS011;980;43.794;11.212;2024-03-23T19:06:55;12.00;;;10.75;;
1959;SDS011;980;43.794;11.212;2024-03-23T19:09:20;23.25;;;20.50;;
1959;SDS011;980;43.794;11.212;2024-03-23T19:11:46;23.75;;;23.00;;
1959;SDS011;980;43.794;11.212;2024-03-23T19:14:11;19.75;;;18.00;;
1959;SDS011;980;43.794;11.212;2024-03-23T19:16:37;20.25;;;19.00;;
1959;SDS011;980;43.794;11.212;2024-03-23T19:19:02;19.75;;;18.75;;
1959;SDS011;980;43.794;11.212;2024-03-23T19:21:28;22.50;;;19.00;;
1959;SDS011;980;43.794;11.212;2024-03-23T19:23:53;19.00;;;19.00;;
1959;SDS011;980;43.794;11.212;2024-03-23T19:26:20;24.00;;;20.75;;
1959;SDS011;980;43.794;11.212;2024-03-23T19:28:45;20.00;;;17.75;;
1959;SDS011;980;43.794;11.212;2024-03-23T19:31:13;18.00;;;18.00;;
1959;SDS011;980;43.794;11.212;2024-03-23T19:33:40;22.50;;;20.25;;
1959;SDS011;980;43.794;11.212;2024-03-23T19:36:06;28.50;;;20.50;;
1959;SDS011;980;43.794;11.212;2024-03-23T19:38:31;27.00;;;25.75;;
1959;SDS011;980;43.794;11.212;2024-03-23T19:40:57;26.75;;;23.25;;
1959;SDS011;980;43.794;11.212;2024-03-23T19:43:23;23.50;;;21.75;;
1959;SDS011;980;43.794;11.212;2024-03-23T19:45:49;32.75;;;29.25;;
1959;SDS011;980;43.794;11.212;2024-03-23T19:48:15;29.50;;;26.25;;
1959;SDS011;980;43.794;11.212;2024-03-23T19:50:41;20.50;;;18.50;;
1959;SDS011;980;43.794;11.212;2024-03-23T19:53:06;25.75;;;21.00;;
1959;SDS011;980;43.794;11.212;2024-03-23T19:55:32;32.25;;;24.75;;
1959;SDS011;980;43.794;11.212;2024-03-23T19:57:58;29.75;;;24.50;;
1959;SDS011;980;43.794;11.212;2024-03-23T20:00:23;28.00;;;22.25;;
1959;SDS011;980;43.794;11.212;2024-03-23T20:02:49;20.00;;;18.75;;
1959;SDS011;980;43.794;11.212;2024-03-23T20:05:15;20.25;;;19.25;;
1959;SDS011;980;43.794;11.212;2024-03-23T20:07:40;29.75;;;21.50;;
1959;SDS011;980;43.794;11.212;2024-03-23T20:10:05;25.75;;;21.25;;
1959;SDS011;980;43.794;11.212;2024-03-23T20:12:31;25.00;;;21.50;;
1959;SDS011;980;43.794;11.212;2024-03-23T20:14:57;29.00;;;24.50;;
1959;SDS011;980;43.794;11.212;2024-03-23T20:17:22;25.50;;;20.00;;
1959;SDS011;980;43.794;11.212;2024-03-23T20:19:51;20.50;;;16.25;;
1959;SDS011;980;43.794;11.212;2024-03-23T20:22:17;24.50;;;21.50;;
1959;SDS011;980;43.794;11.212;2024-03-23T20:24:46;20.00;;;17.50;;
1959;SDS011;980;43.794;11.212;2024-03-23T20:27:12;20.00;;;18.00;;
1959;SDS011;980;43.794;11.212;2024-03-23T20:29:38;24.25;;;18.25;;
1959;SDS011;980;43.794;11.212;2024-03-23T20:32:03;19.25;;;17.00;;
1959;SDS011;980;43.794;11.212;2024-03-23T20:34:29;16.75;;;15.50;;
1959;SDS011;980;43.794;11.212;2024-03-23T20:36:54;18.50;;;14.00;;
1959;SDS011;980;43.794;11.212;2024-03-23T20:39:22;14.75;;;14.00;;
1959;SDS011;980;43.794;11.212;2024-03-23T20:41:47;11.50;;;10.25;;
1959;SDS011;980;43.794;11.212;2024-03-23T20:44:12;14.50;;;11.50;;
1959;SDS011;980;43.794;11.212;2024-03-23T20:46:38;12.00;;;11.25;;
1959;SDS011;980;43.794;11.212;2024-03-23T20:49:03;10.50;;;7.50;;
1959;SDS011;980;43.794;11.212;2024-03-23T20:51:31;9.25;;;9.25;;
1959;SDS011;980;43.794;11.212;2024-03-23T20:53:57;9.50;;;6.75;;
1959;SDS011;980;43.794;11.212;2024-03-23T20:56:22;10.50;;;10.25;;
1959;SDS011;980;43.794;11.212;2024-03-23T20:58:53;7.50;;;7.00;;
1959;SDS011;980;43.794;11.212;2024-03-23T21:01:19;9.25;;;8.50;;
1959;SDS011;980;43.794;11.212;2024-03-23T21:03:47;11.00;;;8.50;;
1959;SDS011;980;43.794;11.212;2024-03-23T21:06:13;11.00;;;9.00;;
1959;SDS011;980;43.794;11.212;2024-03-23T21:08:38;14.00;;;8.50;;
1959;SDS011;980;43.794;11.212;2024-03-23T21:11:04;9.50;;;9.00;;
1959;SDS011;980;43.794;11.212;2024-03-23T21:13:31;11.00;;;10.00;;
1959;SDS011;980;43.794;11.212;2024-03-23T21:15:59;9.75;;;9.50;;
1959;SDS011;980;43.794;11.212;2024-03-23T21:18:28;12.00;;;5.50;;
1959;SDS011;980;43.794;11.212;2024-03-23T21:21:00;8.50;;;7.00;;
1959;SDS011;980;43.794;11.212;2024-03-23T21:23:27;5.25;;;2.50;;
1959;SDS011;980;43.794;11.212;2024-03-23T21:25:56;7.00;;;7.00;;
1959;SDS011;980;43.794;11.212;2024-03-23T21:28:22;9.75;;;8.00;;
1959;SDS011;980;43.794;11.212;2024-03-23T21:30:48;3.00;;;3.00;;
1959;SDS011;980;43.794;11.212;2024-03-23T21:33:13;7.00;;;7.00;;
1959;SDS011;980;43.794;11.212;2024-03-23T21:35:38;9.75;;;7.00;;
1959;SDS011;980;43.794;11.212;2024-03-23T21:38:03;7.00;;;6.00;;
1959;SDS011;980;43.794;11.212;2024-03-23T21:40:29;7.50;;;6.50;;
1959;SDS011;980;43.794;11.212;2024-03-23T21:42:54;9.00;;;7.00;;
1959;SDS011;980;43.794;11.212;2024-03-23T21:45:19;8.00;;;6.25;;
1959;SDS011;980;43.794;11.212;2024-03-23T21:47:46;6.00;;;6.00;;
1959;SDS011;980;43.794;11.212;2024-03-23T21:50:11;5.50;;;5.50;;
1959;SDS011;980;43.794;11.212;2024-03-23T21:52:37;9.00;;;6.00;;
1959;SDS011;980;43.794;11.212;2024-03-23T21:55:02;8.00;;;5.50;;
1959;SDS011;980;43.794;11.212;2024-03-23T21:57:27;6.00;;;5.00;;
1959;SDS011;980;43.794;11.212;2024-03-23T21:59:52;6.00;;;5.75;;
1959;SDS011;980;43.794;11.212;2024-03-23T22:02:18;7.00;;;7.00;;
1959;SDS011;980;43.794;11.212;2024-03-23T22:04:44;9.75;;;6.00;;
1959;SDS011;980;43.794;11.212;2024-03-23T22:07:10;7.00;;;6.00;;
1959;SDS011;980;43.794;11.212;2024-03-23T22:09:35;7.00;;;6.25;;
1959;SDS011;980;43.794;11.212;2024-03-23T22:12:01;11.25;;;5.50;;
1959;SDS011;980;43.794;11.212;2024-03-23T22:14:27;10.00;;;9.00;;
1959;SDS011;980;43.794;11.212;2024-03-23T22:16:52;9.25;;;6.25;;
1959;SDS011;980;43.794;11.212;2024-03-23T22:19:17;10.00;;;6.75;;
1959;SDS011;980;43.794;11.212;2024-03-23T22:21:42;13.75;;;11.50;;
1959;SDS011;980;43.794;11.212;2024-03-23T22:24:08;10.75;;;8.50;;
1959;SDS011;980;43.794;11.212;2024-03-23T22:26:33;9.50;;;8.00;;
1959;SDS011;980;43.794;11.212;2024-03-23T22:28:58;3.50;;;3.00;;
1959;SDS011;980;43.794;11.212;2024-03-23T22:31:23;13.25;;;10.25;;
1959;SDS011;980;43.794;11.212;2024-03-23T22:33:49;10.50;;;6.50;;
1959;SDS011;980;43.794;11.212;2024-03-23T22:36:14;12.25;;;7.00;;
1959;SDS011;980;43.794;11.212;2024-03-23T22:38:40;10.25;;;7.00;;
1959;SDS011;980;43.794;11.212;2024-03-23T22:41:05;11.50;;;6.00;;
1959;SDS011;980;43.794;11.212;2024-03-23T22:43:31;7.50;;;5.25;;
1959;SDS011;980;43.794;11.212;2024-03-23T22:48:22;6.00;;;4.50;;
1959;SDS011;980;43.794;11.212;2024-03-23T22:50:48;6.00;;;6.00;;
1959;SDS011;980;43.794;11.212;2024-03-23T22:53:14;8.00;;;6.00;;
1959;SDS011;980;43.794;11.212;2024-03-23T22:55:39;6.00;;;5.75;;
1959;SDS011;980;43.794;11.212;2024-03-23T22:58:04;7.00;;;6.00;;
1959;SDS011;980;43.794;11.212;2024-03-23T23:00:29;9.00;;;7.00;;
1959;SDS011;980;43.794;11.212;2024-03-23T23:02:55;8.75;;;6.50;;
1959;SDS011;980;43.794;11.212;2024-03-23T23:05:20;5.75;;;5.00;;
1959;SDS011;980;43.794;11.212;2024-03-23T23:07:45;9.25;;;7.00;;
1959;SDS011;980;43.794;11.212;2024-03-23T23:10:10;5.75;;;5.75;;
1959;SDS011;980;43.794;11.212;2024-03-23T23:12:36;6.00;;;5.00;;
1959;SDS011;980;43.794;11.212;2024-03-23T23:15:01;9.75;;;6.00;;
